createdAt,value
2019-06-01T00:00:56.950Z,81.80
2019-06-01T00:03:25.837Z,81.60
2019-06-01T00:05:54.026Z,81.66
2019-06-01T00:08:22.231Z,81.51
2019-06-01T00:10:50.431Z,81.45
2019-06-01T00:13:18.641Z,82.20
2019-06-01T00:15:48.176Z,81.83
2019-06-01T00:18:16.534Z,82.00
2019-06-01T00:20:44.726Z,82.11
2019-06-01T00:23:12.941Z,82.38
2019-06-01T00:25:42.611Z,82.50
2019-06-01T00:28:10.891Z,82.40
2019-06-01T00:30:39.086Z,82.04
2019-06-01T00:33:07.294Z,81.18
2019-06-01T00:35:35.495Z,81.27
2019-06-01T00:38:04.285Z,81.60
2019-06-01T00:40:32.493Z,82.15
2019-06-01T00:43:00.702Z,82.60
2019-06-01T00:45:28.907Z,82.96
2019-06-01T00:47:57.117Z,83.25
2019-06-01T00:50:25.336Z,83.08
2019-06-01T00:52:53.540Z,82.36
2019-06-01T00:55:21.772Z,81.91
2019-06-01T00:57:49.971Z,82.78
2019-06-01T01:00:18.751Z,82.59
2019-06-01T01:02:48.055Z,82.72
2019-06-01T01:05:19.356Z,82.83
2019-06-01T01:07:48.856Z,83.50
2019-06-01T01:10:17.147Z,83.62
2019-06-01T01:13:05.492Z,83.83
2019-06-01T01:15:34.235Z,83.93
2019-06-01T01:18:02.454Z,83.61
2019-06-01T01:20:30.647Z,83.10
2019-06-01T01:22:58.838Z,83.21
2019-06-01T01:25:27.097Z,83.06
2019-06-01T01:27:55.263Z,82.47
2019-06-01T01:30:23.474Z,82.76
2019-06-01T01:32:51.895Z,83.12
2019-06-01T01:35:20.897Z,82.73
2019-06-01T01:37:50.017Z,83.13
2019-06-01T01:40:18.294Z,83.36
2019-06-01T01:42:46.767Z,83.82
2019-06-01T01:45:16.261Z,83.66
2019-06-01T01:47:44.462Z,83.77
2019-06-01T01:50:14.301Z,83.94
2019-06-01T01:52:42.847Z,84.29
2019-06-01T01:55:11.054Z,83.99
2019-06-01T01:57:42.253Z,83.92
2019-06-01T02:00:12.474Z,83.61
2019-06-01T02:02:40.674Z,83.98
2019-06-01T02:05:08.884Z,84.09
2019-06-01T02:07:37.884Z,84.53
2019-06-01T02:10:07.216Z,84.70
2019-06-01T02:12:35.445Z,84.81
2019-06-01T02:15:05.594Z,84.85
2019-06-01T02:17:33.841Z,85.04
2019-06-01T02:20:02.657Z,84.97
2019-06-01T02:22:30.913Z,85.41
2019-06-01T02:24:59.879Z,85.63
2019-06-01T02:27:28.105Z,86.17
2019-06-01T02:29:57.156Z,85.86
2019-06-01T02:32:25.399Z,86.32
2019-06-01T02:34:54.256Z,86.29
2019-06-01T02:37:22.869Z,86.46
2019-06-01T02:39:51.082Z,86.08
2019-06-01T02:42:19.285Z,86.39
2019-06-01T02:44:47.494Z,86.42
2019-06-01T02:47:15.732Z,86.88
2019-06-01T02:49:44.028Z,87.39
2019-06-01T02:52:12.233Z,86.63
2019-06-01T02:54:40.516Z,87.06
2019-06-01T02:57:08.714Z,86.98
2019-06-01T02:59:36.927Z,86.28
2019-06-01T03:02:10.646Z,85.97
2019-06-01T03:04:35.846Z,85.62
2019-06-01T03:07:06.739Z,85.75
2019-06-01T03:09:35.573Z,85.72
2019-06-01T03:12:04.362Z,86.53
2019-06-01T03:14:34.349Z,86.91
2019-06-01T03:17:03.794Z,87.29
2019-06-01T03:19:32.249Z,87.29
2019-06-01T03:22:03.743Z,86.97
2019-06-01T03:24:34.795Z,86.88
2019-06-01T03:27:04.546Z,86.62
2019-06-01T03:29:33.877Z,86.94
2019-06-01T03:32:26.185Z,87.10
2019-06-01T03:34:32.586Z,86.91
2019-06-01T03:37:01.260Z,87.16
2019-06-01T03:39:29.475Z,87.17
2019-06-01T03:41:57.698Z,87.41
2019-06-01T03:44:25.941Z,86.98
2019-06-01T03:46:54.134Z,86.52
2019-06-01T03:49:22.333Z,86.93
2019-06-01T03:51:50.570Z,87.34
2019-06-01T03:54:18.837Z,86.95
2019-06-01T03:56:47.013Z,86.75
2019-06-01T03:59:15.218Z,87.16
2019-06-01T04:01:43.442Z,86.76
2019-06-01T04:04:11.645Z,86.67
2019-06-01T04:06:39.886Z,86.39
2019-06-01T04:09:08.091Z,85.69
2019-06-01T04:11:36.302Z,86.11
2019-06-01T04:14:05.641Z,86.11
2019-06-01T04:16:33.925Z,85.43
2019-06-01T04:19:02.137Z,85.07
2019-06-01T04:21:30.371Z,84.19
2019-06-01T04:23:58.569Z,84.23
2019-06-01T04:26:27.550Z,84.18
2019-06-01T04:28:55.753Z,83.62
2019-06-01T04:31:23.964Z,83.25
2019-06-01T04:33:52.162Z,83.96
2019-06-01T04:36:20.375Z,82.71
2019-06-01T04:38:48.574Z,80.97
2019-06-01T04:41:18.133Z,78.49
2019-06-01T04:43:46.337Z,81.11
2019-06-01T04:46:15.115Z,78.41
2019-06-01T04:48:43.320Z,77.81
2019-06-01T04:51:12.165Z,78.99
2019-06-01T04:53:41.537Z,78.97
2019-06-01T04:56:11.042Z,77.63
2019-06-01T04:58:39.338Z,78.14
2019-06-01T05:01:08.994Z,78.11
2019-06-01T05:03:37.695Z,77.14
2019-06-01T05:06:07.151Z,76.31
2019-06-01T05:08:35.488Z,75.72
2019-06-01T05:11:05.761Z,73.47
2019-06-01T05:13:33.748Z,73.47
2019-06-01T05:16:01.962Z,73.02
2019-06-01T05:18:30.174Z,72.31
2019-06-01T05:20:58.392Z,70.64
2019-06-01T05:23:26.599Z,70.00
2019-06-01T05:25:57.151Z,69.24
2019-06-01T05:28:25.361Z,69.48
2019-06-01T05:30:53.577Z,70.10
2019-06-01T05:33:36.500Z,68.89
2019-06-01T05:35:52.486Z,70.53
2019-06-01T05:38:20.696Z,70.53
2019-06-01T05:40:48.913Z,69.49
2019-06-01T05:43:19.918Z,70.10
2019-06-01T05:45:47.619Z,69.80
2019-06-01T05:48:23.173Z,69.15
2019-06-01T05:50:46.248Z,68.52
2019-06-01T05:53:14.606Z,68.73
2019-06-01T05:55:42.847Z,69.02
2019-06-01T05:58:11.437Z,67.98
2019-06-01T06:00:41.495Z,67.53
2019-06-01T06:03:12.815Z,67.53
2019-06-01T06:05:39.711Z,66.67
2019-06-01T06:08:07.922Z,65.63
2019-06-01T06:10:37.704Z,66.98
2019-06-01T06:13:05.942Z,67.18
2019-06-01T06:15:34.136Z,65.72
2019-06-01T06:18:02.346Z,66.20
2019-06-01T06:20:30.553Z,67.25
2019-06-01T06:22:58.763Z,65.40
2019-06-01T06:25:28.647Z,66.33
2019-06-01T06:27:57.259Z,66.19
2019-06-01T06:30:25.467Z,64.14
2019-06-01T06:32:53.674Z,65.09
2019-06-01T06:35:21.881Z,67.02
2019-06-01T06:37:50.088Z,63.99
2019-06-01T06:40:20.118Z,64.42
2019-06-01T06:42:48.362Z,65.00
2019-06-01T06:45:16.759Z,63.60
2019-06-01T06:47:44.965Z,62.00
2019-06-01T06:50:16.011Z,63.14
2019-06-01T06:52:44.704Z,62.94
2019-06-01T06:55:12.900Z,63.98
2019-06-01T06:57:41.115Z,61.58
2019-06-01T07:00:09.311Z,61.50
2019-06-01T07:02:37.523Z,63.38
2019-06-01T07:05:06.896Z,62.37
2019-06-01T07:07:35.685Z,61.05
2019-06-01T07:10:04.220Z,63.41
2019-06-01T07:12:32.439Z,62.25
2019-06-01T07:15:02.170Z,59.87
2019-06-01T07:17:30.317Z,62.66
2019-06-01T07:19:58.517Z,62.66
2019-06-01T07:22:27.821Z,60.99
2019-06-01T07:24:56.216Z,60.31
2019-06-01T07:27:24.421Z,60.34
2019-06-01T07:29:52.634Z,61.96
2019-06-01T07:32:22.122Z,60.25
2019-06-01T07:34:50.260Z,59.69
2019-06-01T07:37:18.460Z,60.61
2019-06-01T07:39:47.455Z,60.35
2019-06-01T07:42:15.761Z,59.30
2019-06-01T07:44:44.566Z,59.53
2019-06-01T07:47:12.809Z,59.65
2019-06-01T07:49:41.024Z,61.92
2019-06-01T07:52:13.178Z,59.13
2019-06-01T07:54:39.237Z,59.00
2019-06-01T07:57:08.008Z,58.74
2019-06-01T07:59:36.780Z,56.57
2019-06-01T08:02:05.184Z,56.84
2019-06-01T08:04:51.873Z,56.29
2019-06-01T08:07:03.415Z,57.23
2019-06-01T08:09:31.715Z,56.14
2019-06-01T08:12:01.930Z,58.39
2019-06-01T08:14:30.593Z,60.05
2019-06-01T08:16:58.762Z,56.20
2019-06-01T08:19:28.079Z,57.34
2019-06-01T08:21:57.312Z,55.02
2019-06-01T08:24:26.227Z,56.13
2019-06-01T08:26:54.430Z,54.46
2019-06-01T08:29:22.741Z,54.04
2019-06-01T08:31:55.597Z,57.17
2019-06-01T08:34:22.707Z,52.87
2019-06-01T08:36:50.927Z,53.98
2019-06-01T08:39:19.124Z,52.17
2019-06-01T08:41:47.319Z,58.72
2019-06-01T08:44:16.777Z,52.39
2019-06-01T08:46:44.952Z,54.02
2019-06-01T08:49:13.173Z,49.73
2019-06-01T08:51:41.366Z,53.91
2019-06-01T08:54:09.892Z,51.17
2019-06-01T08:56:38.095Z,54.26
2019-06-01T08:59:06.299Z,55.07
2019-06-01T09:01:35.267Z,49.81
2019-06-01T09:04:03.473Z,51.04
2019-06-01T09:06:32.831Z,51.51
2019-06-01T09:09:03.609Z,49.63
2019-06-01T09:11:31.814Z,50.26
2019-06-01T09:14:00.004Z,49.44
2019-06-01T09:16:29.609Z,50.00
2019-06-01T09:18:57.956Z,50.17
2019-06-01T09:21:27.383Z,50.44
2019-06-01T09:23:56.623Z,51.42
2019-06-01T09:26:26.283Z,49.59
2019-06-01T09:28:56.400Z,50.19
2019-06-01T09:31:26.139Z,52.79
2019-06-01T09:33:54.532Z,51.04
2019-06-01T09:36:22.845Z,50.39
2019-06-01T09:38:51.034Z,52.83
2019-06-01T09:41:19.266Z,49.43
2019-06-01T09:43:47.453Z,50.42
2019-06-01T09:46:15.743Z,48.81
2019-06-01T09:48:43.931Z,49.49
2019-06-01T09:51:12.138Z,52.21
2019-06-01T09:53:40.996Z,46.54
2019-06-01T09:56:09.202Z,47.00
2019-06-01T09:58:38.751Z,45.78
2019-06-01T10:01:07.515Z,46.96
2019-06-01T10:03:36.452Z,47.29
2019-06-01T10:06:04.801Z,49.18
2019-06-01T10:08:34.330Z,50.58
2019-06-01T10:11:02.744Z,49.76
2019-06-01T10:13:32.931Z,50.11
2019-06-01T10:16:00.869Z,51.97
2019-06-01T10:18:29.635Z,46.79
2019-06-01T10:20:59.041Z,47.43
2019-06-01T10:23:27.245Z,47.36
2019-06-01T10:25:56.124Z,46.87
2019-06-01T10:28:24.313Z,46.64
2019-06-01T10:30:52.520Z,46.97
2019-06-01T10:33:20.715Z,47.95
2019-06-01T10:35:49.240Z,49.50
2019-06-01T10:38:17.428Z,47.60
2019-06-01T10:40:46.406Z,48.07
2019-06-01T10:43:14.603Z,46.42
2019-06-01T10:45:42.810Z,45.91
2019-06-01T10:48:11.002Z,47.05
2019-06-01T10:50:40.626Z,44.61
2019-06-01T10:53:08.982Z,47.53
2019-06-01T10:55:38.382Z,45.44
2019-06-01T10:58:06.834Z,46.53
2019-06-01T11:00:42.127Z,45.11
2019-06-01T11:03:07.345Z,44.72
2019-06-01T11:05:35.109Z,44.98
2019-06-01T11:08:03.999Z,48.55
2019-06-01T11:10:34.846Z,46.34
2019-06-01T11:13:03.151Z,47.26
2019-06-01T11:15:32.972Z,44.64
2019-06-01T11:18:01.302Z,47.60
2019-06-01T11:20:29.503Z,46.49
2019-06-01T11:22:57.797Z,47.18
2019-06-01T11:25:27.574Z,46.30
2019-06-01T11:27:55.772Z,44.88
2019-06-01T11:30:23.977Z,44.24
2019-06-01T11:32:52.171Z,42.61
2019-06-01T11:35:20.373Z,44.43
2019-06-01T11:37:48.588Z,44.12
2019-06-01T11:40:16.788Z,43.60
2019-06-01T11:42:45.210Z,47.15
2019-06-01T11:45:13.469Z,44.34
2019-06-01T11:47:42.948Z,45.62
2019-06-01T11:50:11.742Z,45.24
2019-06-01T11:52:41.055Z,45.10
2019-06-01T11:55:09.420Z,43.67
2019-06-01T11:57:37.683Z,43.66
2019-06-01T12:00:12.482Z,41.55
2019-06-01T12:02:41.816Z,43.61
2019-06-01T12:05:10.061Z,41.63
2019-06-01T12:07:38.276Z,41.51
2019-06-01T12:10:07.097Z,45.24
2019-06-01T12:12:36.004Z,41.77
2019-06-01T12:15:05.615Z,41.73
2019-06-01T12:17:33.822Z,42.18
2019-06-01T12:20:02.334Z,45.05
2019-06-01T12:22:31.353Z,42.35
2019-06-01T12:24:59.550Z,42.71
2019-06-01T12:27:28.022Z,43.28
2019-06-01T12:29:56.241Z,41.45
2019-06-01T12:32:24.442Z,43.58
2019-06-01T12:34:52.628Z,42.13
2019-06-01T12:37:39.794Z,43.10
2019-06-01T12:39:54.284Z,39.76
2019-06-01T12:42:21.751Z,41.05
2019-06-01T12:44:49.946Z,40.74
2019-06-01T12:47:18.152Z,40.75
2019-06-01T12:49:48.203Z,42.70
2019-06-01T12:52:16.501Z,40.95
2019-06-01T12:54:44.722Z,39.79
2019-06-01T12:57:14.025Z,40.30
2019-06-01T12:59:43.178Z,39.58
2019-06-01T13:02:11.409Z,39.51
2019-06-01T13:04:40.605Z,38.48
2019-06-01T13:07:08.904Z,38.47
2019-06-01T13:09:37.580Z,38.93
2019-06-01T13:12:05.769Z,36.72
2019-06-01T13:14:33.958Z,37.62
2019-06-01T13:17:07.639Z,37.31
2019-06-01T13:19:31.458Z,37.54
2019-06-01T13:22:00.384Z,38.88
2019-06-01T13:24:28.576Z,38.05
2019-06-01T13:26:56.793Z,39.03
2019-06-01T13:29:25.322Z,39.54
2019-06-01T13:31:53.524Z,38.30
2019-06-01T13:34:23.341Z,38.46
2019-06-01T13:36:52.938Z,40.57
2019-06-01T13:39:21.881Z,37.16
2019-06-01T13:41:51.533Z,37.38
2019-06-01T13:44:20.638Z,37.97
2019-06-01T13:46:50.082Z,39.37
2019-06-01T13:49:18.904Z,35.72
2019-06-01T13:51:47.956Z,36.32
2019-06-01T13:54:16.206Z,38.01
2019-06-01T13:56:44.740Z,36.33
2019-06-01T13:59:12.979Z,37.88
2019-06-01T14:01:41.176Z,34.86
2019-06-01T14:04:09.380Z,37.83
2019-06-01T14:06:37.594Z,34.30
2019-06-01T14:09:07.425Z,35.30
2019-06-01T14:11:35.623Z,33.32
2019-06-01T14:14:04.469Z,33.32
2019-06-01T14:16:32.666Z,33.34
2019-06-01T14:19:01.812Z,36.09
2019-06-01T14:21:30.277Z,36.22
2019-06-01T14:23:59.259Z,35.43
2019-06-01T14:26:27.457Z,33.92
2019-06-01T14:28:56.276Z,36.50
2019-06-01T14:31:24.432Z,36.07
2019-06-01T14:33:52.658Z,35.46
2019-06-01T14:36:20.834Z,34.76
2019-06-01T14:38:52.629Z,36.24
2019-06-01T14:41:18.309Z,36.98
2019-06-01T14:43:47.031Z,34.39
2019-06-01T14:46:16.789Z,36.69
2019-06-01T14:48:44.994Z,37.46
2019-06-01T14:51:13.194Z,35.09
2019-06-01T14:53:42.165Z,37.57
2019-06-01T14:56:10.378Z,33.69
2019-06-01T14:58:39.340Z,36.80
2019-06-01T15:01:08.103Z,34.54
2019-06-01T15:03:36.584Z,34.73
2019-06-01T15:06:04.747Z,35.92
2019-06-01T15:08:32.954Z,35.70
2019-06-01T15:11:01.919Z,37.03
2019-06-01T15:13:31.702Z,41.71
2019-06-01T15:15:59.893Z,38.59
2019-06-01T15:18:28.670Z,37.11
2019-06-01T15:20:57.930Z,34.93
2019-06-01T15:23:26.153Z,36.04
2019-06-01T15:25:54.639Z,35.53
2019-06-01T15:28:22.832Z,36.24
2019-06-01T15:30:51.021Z,35.90
2019-06-01T15:33:19.792Z,40.03
2019-06-01T15:35:47.989Z,38.41
2019-06-01T15:38:16.194Z,41.20
2019-06-01T15:40:44.396Z,38.15
2019-06-01T15:43:12.622Z,42.20
2019-06-01T15:45:41.417Z,39.55
2019-06-01T15:48:10.583Z,38.30
2019-06-01T15:50:38.875Z,37.39
2019-06-01T15:53:07.537Z,37.72
2019-06-01T15:55:35.741Z,40.08
2019-06-01T15:58:03.964Z,36.23
2019-06-01T16:00:32.165Z,36.28
2019-06-01T16:03:01.174Z,44.55
2019-06-01T16:05:30.031Z,36.96
2019-06-01T16:07:59.315Z,35.76
2019-06-01T16:10:27.672Z,39.36
2019-06-01T16:12:55.871Z,41.57
2019-06-01T16:15:24.070Z,39.95
2019-06-01T16:17:53.614Z,37.26
2019-06-01T16:20:21.863Z,39.71
2019-06-01T16:22:50.056Z,36.72
2019-06-01T16:25:18.624Z,40.38
2019-06-01T16:27:46.818Z,36.69
2019-06-01T16:30:15.021Z,42.77
2019-06-01T16:32:44.694Z,42.68
2019-06-01T16:35:12.894Z,44.05
2019-06-01T16:37:41.092Z,45.42
2019-06-01T16:40:10.605Z,46.94
2019-06-01T16:42:39.175Z,47.72
2019-06-01T16:45:08.450Z,49.11
2019-06-01T16:47:36.905Z,48.83
2019-06-01T16:50:07.010Z,48.83
2019-06-01T16:52:34.560Z,47.12
2019-06-01T16:55:02.850Z,46.38
2019-06-01T16:57:31.091Z,49.32
2019-06-01T17:00:00.690Z,49.99
2019-06-01T17:02:29.642Z,48.38
2019-06-01T17:04:58.563Z,45.25
2019-06-01T17:07:27.387Z,51.12
2019-06-01T17:09:56.664Z,46.75
2019-06-01T17:12:24.885Z,50.99
2019-06-01T17:14:53.069Z,50.99
2019-06-01T17:17:21.927Z,46.69
2019-06-01T17:19:50.452Z,50.56
2019-06-01T17:22:19.216Z,49.99
2019-06-01T17:24:47.729Z,53.08
2019-06-01T17:27:15.935Z,54.02
2019-06-01T17:29:44.139Z,52.67
2019-06-01T17:32:23.627Z,54.31
2019-06-01T17:34:42.842Z,55.92
2019-06-01T17:37:11.030Z,56.71
2019-06-01T17:39:39.245Z,57.21
2019-06-01T17:42:08.682Z,59.13
2019-06-01T17:44:36.886Z,60.55
2019-06-01T17:47:06.183Z,56.42
2019-06-01T17:49:34.569Z,58.64
2019-06-01T17:52:03.716Z,58.34
2019-06-01T17:54:32.032Z,58.20
2019-06-01T17:57:01.026Z,57.07
2019-06-01T17:59:29.318Z,59.63
2019-06-01T18:01:57.563Z,59.86
2019-06-01T18:04:25.762Z,59.93
2019-06-01T18:06:54.042Z,60.39
2019-06-01T18:09:22.238Z,61.61
2019-06-01T18:11:50.435Z,61.69
2019-06-01T18:14:18.631Z,61.88
2019-06-01T18:16:46.842Z,62.00
2019-06-01T18:19:15.030Z,61.90
2019-06-01T18:21:44.201Z,61.62
2019-06-01T18:24:12.742Z,62.14
2019-06-01T18:26:41.076Z,62.14
2019-06-01T18:29:09.273Z,61.40
2019-06-01T18:31:37.779Z,62.91
2019-06-01T18:34:05.962Z,62.93
2019-06-01T18:36:34.174Z,62.08
2019-06-01T18:39:03.368Z,62.62
2019-06-01T18:41:31.625Z,62.90
2019-06-01T18:44:00.282Z,61.85
2019-06-01T18:46:28.489Z,62.76
2019-06-01T18:48:56.689Z,63.33
2019-06-01T18:51:24.900Z,62.13
2019-06-01T18:53:53.099Z,62.43
2019-06-01T18:56:22.831Z,61.23
2019-06-01T18:58:51.020Z,62.31
2019-06-01T19:01:21.070Z,62.21
2019-06-01T19:03:49.155Z,61.73
2019-06-01T19:06:17.365Z,62.60
2019-06-01T19:08:45.648Z,63.64
2019-06-01T19:11:29.386Z,63.81
2019-06-01T19:13:43.768Z,63.53
2019-06-01T19:16:12.229Z,63.59
2019-06-01T19:18:40.541Z,63.23
2019-06-01T19:21:08.749Z,63.82
2019-06-01T19:23:37.507Z,63.83
2019-06-01T19:26:10.162Z,64.36
2019-06-01T19:28:35.637Z,64.34
2019-06-01T19:31:03.836Z,64.71
2019-06-01T19:33:32.032Z,65.74
2019-06-01T19:36:01.009Z,64.71
2019-06-01T19:38:29.196Z,64.83
2019-06-01T19:40:57.406Z,64.49
2019-06-01T19:43:25.607Z,64.54
2019-06-01T19:45:53.792Z,64.16
2019-06-01T19:48:22.009Z,64.54
2019-06-01T19:50:50.671Z,64.77
2019-06-01T19:53:19.026Z,65.36
2019-06-01T19:55:47.242Z,65.86
2019-06-01T19:58:16.186Z,65.91
2019-06-01T20:00:45.157Z,65.42
2019-06-01T20:03:14.762Z,64.61
2019-06-01T20:05:43.954Z,64.00
2019-06-01T20:08:12.395Z,64.15
2019-06-01T20:10:40.621Z,63.67
2019-06-01T20:13:08.827Z,63.79
2019-06-01T20:15:37.023Z,63.79
2019-06-01T20:18:05.225Z,64.01
2019-06-01T20:20:34.891Z,64.63
2019-06-01T20:23:03.102Z,64.81
2019-06-01T20:25:31.299Z,64.18
2019-06-01T20:27:59.510Z,64.01
2019-06-01T20:30:27.701Z,64.12
2019-06-01T20:32:55.901Z,65.21
2019-06-01T20:35:24.102Z,65.21
2019-06-01T20:37:52.876Z,66.06
2019-06-01T20:40:22.509Z,66.06
2019-06-01T20:42:51.020Z,65.35
2019-06-01T20:45:20.866Z,66.05
2019-06-01T20:47:49.134Z,66.27
2019-06-01T20:50:18.576Z,65.04
2019-06-01T20:52:46.914Z,64.81
2019-06-01T20:55:15.281Z,65.07
2019-06-01T20:57:43.465Z,64.39
2019-06-01T21:00:11.654Z,64.39
2019-06-01T21:02:39.864Z,65.08
2019-06-01T21:05:08.060Z,64.45
2019-06-01T21:07:36.270Z,64.63
2019-06-01T21:10:07.556Z,64.63
2019-06-01T21:12:44.611Z,64.06
2019-06-01T21:15:06.613Z,64.06
2019-06-01T21:17:34.820Z,64.33
2019-06-01T21:20:05.160Z,64.60
2019-06-01T21:22:32.748Z,64.81
2019-06-01T21:25:02.518Z,64.94
2019-06-01T21:27:30.938Z,64.83
2019-06-01T21:29:59.224Z,65.29
2019-06-01T21:32:27.728Z,65.49
2019-06-01T21:34:55.925Z,65.87
2019-06-01T21:37:24.128Z,65.04
2019-06-01T21:39:52.326Z,64.79
2019-06-01T21:42:21.742Z,64.79
2019-06-01T21:44:49.919Z,64.81
2019-06-01T21:47:18.161Z,64.90
2019-06-01T21:49:46.936Z,65.21
2019-06-01T21:52:15.817Z,66.29
2019-06-01T21:54:44.765Z,66.29
2019-06-01T21:57:12.960Z,65.05
2019-06-01T21:59:42.634Z,64.84
2019-06-01T22:02:11.600Z,65.24
2019-06-01T22:04:39.802Z,65.52
2019-06-01T22:07:08.008Z,64.99
2019-06-01T22:09:36.212Z,64.99
2019-06-01T22:12:04.399Z,64.94
2019-06-01T22:14:32.608Z,65.34
2019-06-01T22:17:00.802Z,65.38
2019-06-01T22:19:29.783Z,65.62
2019-06-01T22:21:57.964Z,67.87
2019-06-01T22:24:26.174Z,67.87
2019-06-01T22:26:54.472Z,70.13
2019-06-01T22:29:22.679Z,70.14
2019-06-01T22:31:50.874Z,70.14
2019-06-01T22:34:19.083Z,69.94
2019-06-01T22:36:47.280Z,69.94
2019-06-01T22:39:15.589Z,69.76
2019-06-01T22:41:43.776Z,69.56
2019-06-01T22:44:11.979Z,69.98
2019-06-01T22:46:40.170Z,69.40
2019-06-01T22:49:08.368Z,69.31
2019-06-01T22:51:36.562Z,69.31
2019-06-01T22:54:04.939Z,69.61
2019-06-01T22:56:33.133Z,69.61
2019-06-01T22:59:01.340Z,71.40
2019-06-01T23:01:29.537Z,71.40
2019-06-01T23:03:57.991Z,69.88
2019-06-01T23:06:27.026Z,68.24
2019-06-01T23:08:55.264Z,67.18
2019-06-01T23:11:25.143Z,67.18
2019-06-01T23:13:54.000Z,66.92
2019-06-01T23:16:23.655Z,67.09
2019-06-01T23:18:52.451Z,68.19
2019-06-01T23:21:21.836Z,69.71
2019-06-01T23:23:49.989Z,69.71
2019-06-01T23:26:18.177Z,71.49
2019-06-01T23:28:46.375Z,71.49
2019-06-01T23:31:14.572Z,71.73
2019-06-01T23:33:42.805Z,71.72
2019-06-01T23:36:10.984Z,73.17
2019-06-01T23:38:39.190Z,73.17
2019-06-01T23:41:07.388Z,73.09
2019-06-01T23:43:37.148Z,72.74
2019-06-01T23:46:07.494Z,73.13
2019-06-01T23:48:35.051Z,72.41
2019-06-01T23:51:03.197Z,72.47
2019-06-01T23:53:31.633Z,70.73
2019-06-01T23:55:59.968Z,70.33
2019-06-01T23:58:28.169Z,69.99
